Rushville, IL

9:50 PM CDT on October 01, 2014 (GMT -0500)
Rushville (Inner City) | Change Station
CLOSE
Current Station
Personal Weather Station
Location: Rushville, IL
Elevation: 666 ft
Nearby Weather Stations

Elev 666 ft 40.12 °N, 90.57 °W | Updated 24 seconds ago

Mostly Cloudy
Mostly Cloudy
66.7 °F
Feels Like 66.7 °F
N
2.0
Wind Variable Wind from SSE
Gusts 3.0 mph

Today
High -- | Low -- °F
--% Chance of Precip.
Yesterday
High -- | Low -- °F
Precip. -- in
6:58 AM 6:44 PM
First Quarter, 53% visible
Pressure 29.96 in
Visibility 10.0 miles
Clouds Clear
Dew Point 65 °F
Humidity 95%
Rainfall 1.30 in
Snow Depth Not available.
UV 0 out of 12
Pollen 3.80 out of 12
Air Quality Not available.
Flu Activity Not available.
METAR KMQB 010335Z AUTO 09006KT 10SM CLR 14/12 A2996 RMK AO2 T01350116

More Conditions Fewer Conditions

Pressure 29.96 in
Visibility 10.0 miles
Clouds Clear
Dew Point 65 °F
Humidity 95%
Rainfall 1.30 in
Snow Depth Not available.
UV 0 out of 12
Pollen 3.80 out of 12
Air Quality Not available.
Flu Activity Not available.
METAR KMQB 010335Z AUTO 09006KT 10SM CLR 14/12 A2996 RMK AO2 T01350116

More Conditions Fewer Conditions

10-Day Weather Forecast

Almanac

Astronomy

Oct. 01, 2014 Rise Set
Actual Time 6:58 AM CDT 6:44 PM CDT
Civil Twilight 6:31 AM CDT 7:11 PM CDT
Nautical Twilight 6:00 AM CDT 7:42 PM CDT
Astronomical Twilight 5:28 AM CDT 8:14 PM CDT
Moon 1:59 PM CDT (10/1) No Moon Set
Length of Visible Light 12h 39m
Length of Day
11h 45m
Tomorrow will be 2m 36s shorter.
First Quarter, 53% of the Moon is Illuminated
Today
First Quarter
Oct 8
Full
Oct 15
Last Quarter
Oct 23
New
Oct 30
First Quarter

Today's Extremes

State Highs State Lows

Community

WunderPhotos

Upload Photos

1,758,154 photos uploaded!

WunderBlogs® & News

Nearby

Snow Depth

Station Depth Elevation
No new snow has been reported.

Earthquake Activity

City Distance Mag. Time & Date
No recent earthquake activity has been reported nearby.
Minimum magnitude displayed is 2.5.

Coastal Water Temperatures

Place Temperature
No Stations Reporting

Nearby Weather Stations